createdAt,value
2019-01-23T00:00:39.906Z,65.80
2019-01-23T00:03:08.293Z,67.00
2019-01-23T00:05:36.556Z,68.50
2019-01-23T00:08:06.111Z,66.13
2019-01-23T00:10:34.480Z,58.77
2019-01-23T00:13:03.587Z,53.73
2019-01-23T00:15:32.209Z,50.00
2019-01-23T00:18:00.491Z,53.97
2019-01-23T00:20:29.560Z,53.57
2019-01-23T00:22:57.885Z,58.77
2019-01-23T00:25:26.187Z,54.97
2019-01-23T00:27:54.457Z,51.20
2019-01-23T00:30:24.352Z,55.73
2019-01-23T00:32:52.660Z,50.00
2019-01-23T00:35:21.011Z,47.07
2019-01-23T00:37:49.285Z,56.43
2019-01-23T00:40:17.582Z,50.67
2019-01-23T00:42:45.848Z,52.97
2019-01-23T00:45:15.651Z,50.00
2019-01-23T00:47:43.950Z,58.40
2019-01-23T00:50:13.668Z,49.97
2019-01-23T00:52:41.935Z,49.07
2019-01-23T00:55:15.984Z,50.33
2019-01-23T00:57:44.437Z,51.57
2019-01-23T01:00:18.796Z,50.73
2019-01-23T01:02:47.106Z,50.23
2019-01-23T01:05:16.014Z,50.50
2019-01-23T01:07:44.297Z,51.30
2019-01-23T01:10:15.046Z,54.20
2019-01-23T01:12:43.308Z,49.27
2019-01-23T01:15:13.544Z,55.20
2019-01-23T01:17:41.650Z,52.50
2019-01-23T01:20:11.968Z,61.20
2019-01-23T01:22:40.243Z,52.33
2019-01-23T01:25:11.008Z,51.67
2019-01-23T01:27:39.272Z,53.90
2019-01-23T01:30:17.658Z,53.63
2019-01-23T01:32:45.996Z,55.80
2019-01-23T01:35:14.272Z,48.43
2019-01-23T01:37:42.586Z,50.53
2019-01-23T01:40:13.306Z,46.20
2019-01-23T01:42:41.588Z,47.57
2019-01-23T01:45:11.036Z,51.93
2019-01-23T01:47:39.309Z,58.13
2019-01-23T01:50:14.199Z,56.87
2019-01-23T01:52:42.507Z,50.63
2019-01-23T01:55:10.779Z,51.63
2019-01-23T01:57:39.063Z,49.00
2019-01-23T02:00:19.888Z,44.97
2019-01-23T02:02:48.169Z,49.67
2019-01-23T02:05:16.444Z,44.57
2019-01-23T02:07:44.751Z,44.97
2019-01-23T02:10:18.102Z,46.47
2019-01-23T02:12:46.355Z,50.43
2019-01-23T02:15:15.412Z,43.97
2019-01-23T02:17:43.726Z,46.27
2019-01-23T02:20:17.533Z,42.43
2019-01-23T02:22:46.769Z,39.07
2019-01-23T02:25:15.046Z,42.93
2019-01-23T02:27:44.201Z,45.83
2019-01-23T02:30:19.496Z,38.53
2019-01-23T02:32:47.750Z,38.40
2019-01-23T02:35:16.032Z,43.70
2019-01-23T02:37:44.339Z,40.57
2019-01-23T02:40:15.592Z,42.57
2019-01-23T02:42:43.866Z,39.93
2019-01-23T02:45:12.163Z,41.83
2019-01-23T02:47:40.435Z,43.77
2019-01-23T02:50:10.483Z,37.90
2019-01-23T02:52:38.784Z,45.83
2019-01-23T02:55:09.003Z,45.93
2019-01-23T02:57:37.294Z,44.23
2019-01-23T03:00:16.815Z,47.97
2019-01-23T03:02:45.570Z,44.43
2019-01-23T03:05:18.310Z,43.03
2019-01-23T03:10:18.349Z,40.17
2019-01-23T03:15:17.971Z,46.33
2019-01-23T03:17:46.412Z,44.50
2019-01-23T03:20:16.320Z,43.90
2019-01-23T03:22:44.692Z,43.47
2019-01-23T03:25:14.977Z,77.73
2019-01-23T03:27:43.317Z,44.40
2019-01-23T03:30:14.851Z,56.77
2019-01-23T03:32:43.195Z,49.50
2019-01-23T03:35:11.462Z,40.90
2019-01-23T03:37:39.776Z,43.73
2019-01-23T03:40:11.299Z,47.30
2019-01-23T03:42:39.583Z,44.67
2019-01-23T03:45:10.361Z,42.00
2019-01-23T03:47:38.634Z,35.63
2019-01-23T03:50:10.043Z,45.80
2019-01-23T03:52:38.368Z,40.63
2019-01-23T03:55:08.778Z,47.93
2019-01-23T03:57:37.169Z,44.13
2019-01-23T04:00:11.286Z,44.03
2019-01-23T04:02:39.690Z,49.40
2019-01-23T04:05:09.710Z,46.90
2019-01-23T04:07:38.004Z,41.97
2019-01-23T04:10:11.895Z,49.33
2019-01-23T04:12:40.229Z,54.63
2019-01-23T04:15:10.431Z,101.30
2019-01-23T04:17:38.859Z,51.50
2019-01-23T04:20:10.643Z,65.87
2019-01-23T04:22:39.083Z,36.00
2019-01-23T04:25:11.025Z,55.60
2019-01-23T04:27:39.395Z,54.60
2019-01-23T04:30:13.782Z,49.00
2019-01-23T04:32:42.099Z,60.53
2019-01-23T04:35:10.386Z,51.67
2019-01-23T04:37:38.667Z,57.50
2019-01-23T04:40:09.809Z,51.83
2019-01-23T04:42:38.067Z,56.10
2019-01-23T04:45:09.183Z,62.17
2019-01-23T04:47:37.591Z,92.10
2019-01-23T04:50:08.967Z,65.27
2019-01-23T04:52:38.951Z,53.40
2019-01-23T04:55:07.564Z,68.03
2019-01-23T04:57:35.856Z,72.07
2019-01-23T05:00:08.232Z,74.03
2019-01-23T05:02:36.550Z,68.90
2019-01-23T05:05:06.868Z,64.00
2019-01-23T05:07:35.146Z,63.20
2019-01-23T05:10:04.533Z,129.37
2019-01-23T05:12:32.980Z,114.27
2019-01-23T05:15:01.254Z,70.83
2019-01-23T05:17:29.581Z,73.03
2019-01-23T05:19:57.830Z,74.50
2019-01-23T05:22:26.118Z,111.40
2019-01-23T05:24:54.417Z,98.50
2019-01-23T05:27:22.688Z,91.60
2019-01-23T05:29:54.958Z,85.17
2019-01-23T05:32:21.122Z,95.43
2019-01-23T05:34:49.497Z,80.37
2019-01-23T05:37:18.041Z,74.57
2019-01-23T05:39:46.344Z,78.37
2019-01-23T05:42:14.626Z,78.93
2019-01-23T05:44:42.936Z,79.30
2019-01-23T05:47:11.243Z,102.27
2019-01-23T05:49:39.522Z,63.70
2019-01-23T05:52:07.799Z,88.00
2019-01-23T05:54:36.094Z,117.37
2019-01-23T05:57:04.374Z,101.63
2019-01-23T05:59:32.648Z,116.67
2019-01-23T06:02:00.973Z,115.80
2019-01-23T06:04:29.233Z,120.03
2019-01-23T06:06:57.515Z,122.87
2019-01-23T06:09:25.829Z,111.57
2019-01-23T06:11:54.105Z,123.73
2019-01-23T06:14:22.487Z,147.37
2019-01-23T06:16:50.793Z,134.30
2019-01-23T06:19:19.137Z,135.03
2019-01-23T06:21:47.408Z,156.70
2019-01-23T06:24:15.731Z,147.43
2019-01-23T06:26:44.008Z,115.20
2019-01-23T06:29:12.357Z,104.37
2019-01-23T06:31:40.690Z,114.20
2019-01-23T06:34:08.989Z,119.43
2019-01-23T06:36:37.273Z,105.43
2019-01-23T06:39:07.634Z,101.67
2019-01-23T06:41:35.951Z,99.10
2019-01-23T06:44:04.268Z,86.63
2019-01-23T06:46:32.547Z,99.43
2019-01-23T06:49:00.827Z,98.10
2019-01-23T06:51:29.097Z,105.50
2019-01-23T06:53:57.424Z,90.40
2019-01-23T06:56:25.691Z,87.33
2019-01-23T06:58:53.960Z,70.17
2019-01-23T07:01:22.262Z,65.80
2019-01-23T07:03:50.527Z,73.60
2019-01-23T07:06:18.818Z,60.53
2019-01-23T07:08:47.132Z,48.03
2019-01-23T07:11:15.418Z,58.47
2019-01-23T07:13:43.771Z,56.73
2019-01-23T07:16:13.054Z,53.17
2019-01-23T07:18:45.904Z,63.50
2019-01-23T07:21:14.338Z,49.37
2019-01-23T07:23:44.353Z,52.57
2019-01-23T07:26:14.257Z,49.93
2019-01-23T07:28:49.254Z,65.60
2019-01-23T07:31:16.676Z,72.37
2019-01-23T07:33:46.116Z,80.23
2019-01-23T07:36:14.769Z,70.57
2019-01-23T07:38:44.668Z,73.37
2019-01-23T07:41:14.585Z,81.43
2019-01-23T07:43:42.927Z,61.30
2019-01-23T07:46:11.210Z,70.60
2019-01-23T07:48:41.696Z,65.77
2019-01-23T07:51:11.645Z,78.03
2019-01-23T07:53:41.552Z,52.50
2019-01-23T07:56:11.458Z,65.60
2019-01-23T07:58:41.443Z,61.17
2019-01-23T08:01:11.335Z,65.50
2019-01-23T08:03:39.668Z,53.13
2019-01-23T08:06:10.973Z,52.77
2019-01-23T08:08:39.257Z,59.67
2019-01-23T08:11:07.542Z,66.47
2019-01-23T08:13:35.853Z,63.20
2019-01-23T08:16:04.129Z,57.73
2019-01-23T08:18:32.511Z,72.20
2019-01-23T08:21:00.819Z,68.80
2019-01-23T08:23:29.106Z,62.70
2019-01-23T08:25:57.367Z,83.23
2019-01-23T08:28:25.674Z,88.97
2019-01-23T08:30:53.942Z,68.30
2019-01-23T08:33:22.283Z,70.63
2019-01-23T08:35:50.619Z,72.33
2019-01-23T08:38:18.906Z,71.87
2019-01-23T08:40:47.189Z,67.93
2019-01-23T08:43:15.647Z,75.83
2019-01-23T08:45:43.907Z,57.90
2019-01-23T08:48:12.186Z,59.13
2019-01-23T08:50:42.122Z,75.50
2019-01-23T08:53:10.459Z,72.93
2019-01-23T08:55:38.748Z,52.73
2019-01-23T08:58:07.139Z,56.30
2019-01-23T09:00:35.416Z,52.90
2019-01-23T09:03:03.770Z,107.23
2019-01-23T09:05:32.095Z,53.70
2019-01-23T09:08:00.432Z,45.70
2019-01-23T09:10:30.142Z,58.53
2019-01-23T09:12:58.552Z,80.57
2019-01-23T09:15:26.856Z,64.80
2019-01-23T09:17:55.139Z,64.70
2019-01-23T09:20:24.491Z,72.60
2019-01-23T09:22:52.887Z,72.03
2019-01-23T09:25:23.886Z,73.83
2019-01-23T09:27:52.213Z,67.03
2019-01-23T09:30:23.636Z,78.27
2019-01-23T09:33:12.228Z,66.40
2019-01-23T09:35:46.650Z,67.77
2019-01-23T09:38:41.080Z,74.87
2019-01-23T09:41:12.617Z,82.63
2019-01-23T09:44:00.484Z,92.30
2019-01-23T09:46:40.535Z,75.20
2019-01-23T09:49:27.110Z,75.70
2019-01-23T09:52:01.487Z,60.67
2019-01-23T09:54:29.918Z,78.70
2019-01-23T09:56:58.236Z,61.83
2019-01-23T09:59:26.510Z,63.27
2019-01-23T10:01:54.786Z,83.57
2019-01-23T10:04:24.723Z,70.73
2019-01-23T10:06:52.990Z,91.73
2019-01-23T10:09:21.259Z,89.17
2019-01-23T10:11:51.221Z,89.57
2019-01-23T10:14:21.915Z,82.03
2019-01-23T10:16:50.184Z,84.30
2019-01-23T10:19:18.525Z,97.90
2019-01-23T10:21:46.898Z,109.30
2019-01-23T10:24:15.212Z,105.30
2019-01-23T10:26:43.525Z,93.87
2019-01-23T10:29:11.857Z,92.97
2019-01-23T10:31:40.136Z,79.80
2019-01-23T10:34:08.516Z,84.47
2019-01-23T10:36:36.797Z,78.37
2019-01-23T10:39:07.511Z,70.17
2019-01-23T10:41:35.815Z,72.20
2019-01-23T10:44:04.082Z,80.47
2019-01-23T10:46:32.348Z,83.10
2019-01-23T10:49:00.653Z,89.00
2019-01-23T10:51:28.939Z,87.40
2019-01-23T10:53:57.215Z,109.10
2019-01-23T10:56:25.736Z,97.27
2019-01-23T10:58:54.029Z,102.73
2019-01-23T11:01:22.304Z,110.20
2019-01-23T11:03:50.615Z,102.87
2019-01-23T11:06:18.898Z,120.83
2019-01-23T11:08:47.190Z,121.00
2019-01-23T11:11:15.498Z,103.27
2019-01-23T11:13:43.801Z,90.77
2019-01-23T11:16:12.187Z,131.07
2019-01-23T11:18:40.502Z,131.27
2019-01-23T11:21:09.530Z,117.87
2019-01-23T11:23:37.800Z,96.97
2019-01-23T11:26:06.128Z,93.20
2019-01-23T11:28:36.028Z,104.30
2019-01-23T11:31:04.310Z,104.80
2019-01-23T11:33:32.632Z,111.40
2019-01-23T11:36:00.948Z,109.10
2019-01-23T11:38:29.504Z,132.27
2019-01-23T11:40:59.470Z,153.50
2019-01-23T11:43:27.742Z,135.87
2019-01-23T11:45:56.025Z,171.90
2019-01-23T11:48:24.868Z,186.80
2019-01-23T11:50:53.142Z,178.13
2019-01-23T11:53:21.436Z,176.87
2019-01-23T11:55:51.377Z,191.77
2019-01-23T11:58:19.738Z,210.90
2019-01-23T12:00:48.082Z,209.60
2019-01-23T12:03:20.860Z,206.07
2019-01-23T12:05:46.514Z,189.23
2019-01-23T12:20:55.036Z,179.40
2019-01-23T12:23:23.352Z,164.97
2019-01-23T12:25:51.626Z,162.93
2019-01-23T12:28:19.918Z,168.70
2019-01-23T12:33:38.180Z,177.10
2019-01-23T12:36:06.510Z,191.80
2019-01-23T12:38:34.815Z,197.50
2019-01-23T12:41:03.091Z,189.93
2019-01-23T12:43:31.402Z,174.90
2019-01-23T12:45:59.767Z,180.77
2019-01-23T12:48:28.037Z,168.17
2019-01-23T12:50:56.479Z,159.90
2019-01-23T12:53:24.769Z,155.80
2019-01-23T12:55:53.048Z,174.17
2019-01-23T13:01:08.649Z,196.83
2019-01-23T13:03:38.644Z,177.67
2019-01-23T13:06:06.930Z,179.33
2019-01-23T13:08:35.208Z,205.13
2019-01-23T13:11:04.293Z,175.33
2019-01-23T13:13:32.579Z,238.53
2019-01-23T13:16:00.868Z,213.60
2019-01-23T13:18:29.183Z,199.83
2019-01-23T13:20:57.474Z,225.13
2019-01-23T13:23:25.761Z,186.50
2019-01-23T13:25:54.082Z,220.97
2019-01-23T13:28:22.373Z,191.17
2019-01-23T13:30:50.726Z,204.97
2019-01-23T13:33:20.683Z,207.73
2019-01-23T13:35:48.967Z,185.87
2019-01-23T13:38:17.250Z,172.90
2019-01-23T13:40:46.483Z,177.53
2019-01-23T13:43:14.757Z,207.23
2019-01-23T13:45:45.208Z,201.53
2019-01-23T13:48:13.619Z,207.67
2019-01-23T13:50:41.922Z,285.90
2019-01-23T13:53:10.224Z,329.80
2019-01-23T13:55:40.160Z,228.50
2019-01-23T13:58:08.484Z,166.90
2019-01-23T14:00:40.228Z,207.10
2019-01-23T14:18:21.535Z,210.20
2019-01-23T14:20:49.815Z,235.50
2019-01-23T14:23:18.122Z,231.43
2019-01-23T14:25:48.473Z,241.40
2019-01-23T14:28:16.902Z,243.97
2019-01-23T14:30:45.191Z,244.30
2019-01-23T14:33:15.158Z,278.77
2019-01-23T14:35:43.446Z,287.33
2019-01-23T14:38:11.903Z,312.97
2019-01-23T14:50:51.883Z,238.27
2019-01-23T14:53:20.335Z,200.70
2019-01-23T14:55:48.637Z,212.13
2019-01-23T14:58:17.064Z,200.07
2019-01-23T15:06:05.497Z,238.90
2019-01-23T15:08:33.776Z,267.20
2019-01-23T15:11:02.072Z,258.13
2019-01-23T15:18:51.203Z,285.57
2019-01-23T15:21:19.488Z,302.57
2019-01-23T15:23:47.775Z,351.27
2019-01-23T15:26:16.091Z,281.37
2019-01-23T15:28:47.639Z,231.20
2019-01-23T15:31:15.963Z,279.43
2019-01-23T15:33:45.904Z,232.57
2019-01-23T15:36:15.803Z,307.53
2019-01-23T15:38:45.848Z,246.70
2019-01-23T15:41:15.795Z,193.27
2019-01-23T15:43:44.088Z,291.77
2019-01-23T15:46:12.391Z,270.57
2019-01-23T15:51:22.124Z,239.03
2019-01-23T15:53:50.436Z,192.33
2019-01-23T15:56:18.741Z,227.40
2019-01-23T15:58:47.093Z,245.73
2019-01-23T16:09:04.738Z,211.17
2019-01-23T16:11:35.511Z,204.67
2019-01-23T16:16:51.096Z,178.10
2019-01-23T16:19:19.420Z,147.53
2019-01-23T16:21:47.729Z,141.57
2019-01-23T16:24:16.011Z,162.20
2019-01-23T16:26:45.958Z,187.80
2019-01-23T16:29:14.392Z,189.07
2019-01-23T16:31:42.672Z,155.13
2019-01-23T16:34:11.057Z,154.53
2019-01-23T16:36:39.374Z,155.20
2019-01-23T16:39:08.122Z,186.30
2019-01-23T16:51:36.558Z,177.17
2019-01-23T16:54:04.830Z,149.37
2019-01-23T16:56:33.211Z,187.10
2019-01-23T16:59:01.489Z,159.63
2019-01-23T17:01:29.915Z,134.03
2019-01-23T17:03:58.223Z,153.57
2019-01-23T17:06:26.524Z,151.67
2019-01-23T17:08:54.796Z,125.63
2019-01-23T17:11:23.125Z,132.97
2019-01-23T17:13:51.412Z,140.60
2019-01-23T17:16:19.771Z,148.00
2019-01-23T17:18:49.939Z,146.43
2019-01-23T17:21:18.217Z,151.37
2019-01-23T17:23:49.768Z,120.07
2019-01-23T17:26:20.037Z,122.90
2019-01-23T17:28:48.510Z,126.53
2019-01-23T17:31:21.573Z,133.27
2019-01-23T17:33:51.900Z,114.40
2019-01-23T17:36:21.885Z,135.63
2019-01-23T17:38:51.842Z,130.80
2019-01-23T17:44:09.452Z,184.77
2019-01-23T17:54:22.747Z,173.77
2019-01-23T17:56:52.111Z,196.07
2019-01-23T17:59:20.486Z,176.43
2019-01-23T18:04:40.165Z,187.40
2019-01-23T18:07:14.451Z,205.30
2019-01-23T18:09:42.748Z,284.07
2019-01-23T18:12:12.831Z,220.30
2019-01-23T18:14:41.869Z,284.47
2019-01-23T18:17:11.293Z,219.37
2019-01-23T18:19:39.655Z,249.53
2019-01-23T18:22:09.762Z,194.00
2019-01-23T18:24:39.774Z,213.77
2019-01-23T18:27:09.766Z,204.83
2019-01-23T18:29:39.732Z,192.77
2019-01-23T18:32:09.747Z,203.73
2019-01-23T18:34:50.148Z,208.00
2019-01-23T18:37:24.375Z,166.70
2019-01-23T18:40:05.242Z,201.67
2019-01-23T18:42:36.845Z,152.93
2019-01-23T18:45:12.898Z,157.40
2019-01-23T18:47:55.784Z,176.10
2019-01-23T18:50:41.694Z,157.67
2019-01-23T18:53:10.558Z,213.90
2019-01-23T18:55:39.195Z,111.47
2019-01-23T18:58:07.749Z,133.23
2019-01-23T19:00:36.100Z,120.97
2019-01-23T19:03:07.658Z,152.73
2019-01-23T19:05:37.593Z,119.17
2019-01-23T19:08:07.530Z,138.00
2019-01-23T19:10:37.500Z,117.63
2019-01-23T19:13:05.951Z,126.53
2019-01-23T19:15:34.488Z,137.57
2019-01-23T19:18:02.769Z,117.33
2019-01-23T19:23:18.449Z,171.10
2019-01-23T19:25:48.401Z,160.63
2019-01-23T19:28:18.319Z,183.63
2019-01-23T19:30:46.633Z,176.03
2019-01-23T19:33:16.588Z,204.30
2019-01-23T19:35:46.519Z,201.00
2019-01-23T19:38:16.438Z,219.50
2019-01-23T19:40:46.687Z,191.03
2019-01-23T19:43:16.672Z,205.30
2019-01-23T19:45:46.578Z,259.93
2019-01-23T19:48:19.145Z,326.03
2019-01-23T19:50:47.749Z,340.17
2019-01-23T19:53:16.362Z,419.03
2019-01-23T19:55:44.690Z,223.93
2019-01-23T19:58:12.963Z,320.17
2019-01-23T20:00:43.052Z,294.70
2019-01-23T20:03:20.147Z,284.63
2019-01-23T20:05:43.494Z,305.10
2019-01-23T20:08:11.835Z,423.30
2019-01-23T20:18:44.960Z,347.93
2019-01-23T20:21:13.591Z,254.80
2019-01-23T20:23:42.044Z,302.10
2019-01-23T20:26:10.363Z,254.30
2019-01-23T20:28:39.114Z,288.83
2019-01-23T20:31:07.411Z,344.10
2019-01-23T20:33:35.869Z,352.17
2019-01-23T20:38:51.580Z,259.80
2019-01-23T20:41:21.544Z,291.23
2019-01-23T20:43:49.817Z,280.67
2019-01-23T20:46:18.099Z,296.63
2019-01-23T20:48:49.351Z,365.23
2019-01-23T20:51:17.812Z,317.10
2019-01-23T20:53:46.166Z,380.17
2019-01-23T20:56:14.495Z,282.07
2019-01-23T20:58:42.779Z,269.07
2019-01-23T21:01:11.066Z,249.33
2019-01-23T21:03:39.655Z,324.27
2019-01-23T21:06:07.932Z,190.70
2019-01-23T21:08:36.215Z,236.53
2019-01-23T21:11:06.607Z,264.43
2019-01-23T21:13:36.550Z,247.27
2019-01-23T21:16:04.894Z,331.77
2019-01-23T21:18:33.246Z,363.30
2019-01-23T21:21:01.542Z,231.13
2019-01-23T21:23:31.459Z,243.97
2019-01-23T21:26:02.186Z,275.60
2019-01-23T21:28:33.092Z,233.70
2019-01-23T21:31:01.508Z,346.70
2019-01-23T21:33:31.597Z,224.83
2019-01-23T21:36:00.017Z,366.57
2019-01-23T21:38:28.401Z,180.40
2019-01-23T21:40:56.735Z,224.67
2019-01-23T21:43:25.006Z,221.13
2019-01-23T21:45:53.371Z,234.37
2019-01-23T21:48:24.437Z,258.83
2019-01-23T21:50:52.718Z,201.57
2019-01-23T21:53:20.988Z,186.17
2019-01-23T21:55:49.332Z,316.90
2019-01-23T21:58:17.623Z,195.73
2019-01-23T22:00:46.069Z,215.60
2019-01-23T22:03:14.454Z,265.57
2019-01-23T22:05:44.389Z,170.53
2019-01-23T22:08:15.995Z,226.10
2019-01-23T22:10:45.939Z,221.20
2019-01-23T22:13:14.232Z,166.20
2019-01-23T22:15:42.588Z,162.63
2019-01-23T22:18:10.941Z,168.60
2019-01-23T22:20:40.529Z,156.27
2019-01-23T22:23:08.971Z,185.20
2019-01-23T22:30:54.753Z,138.30
2019-01-23T22:33:24.702Z,149.80
2019-01-23T22:35:54.716Z,149.20
2019-01-23T22:38:24.776Z,153.00
2019-01-23T22:40:53.050Z,137.63
2019-01-23T22:43:21.336Z,127.27
2019-01-23T22:45:49.837Z,143.47
2019-01-23T22:48:18.219Z,150.80
2019-01-23T22:50:46.562Z,138.73
2019-01-23T22:53:14.958Z,129.40
2019-01-23T22:55:43.268Z,112.27
2019-01-23T22:58:11.559Z,117.00
2019-01-23T23:00:47.213Z,127.37
2019-01-23T23:03:16.034Z,113.40
2019-01-23T23:05:44.414Z,95.87
2019-01-23T23:08:14.357Z,96.67
2019-01-23T23:10:42.646Z,101.50
2019-01-23T23:13:11.016Z,107.27
2019-01-23T23:15:39.388Z,83.27
2019-01-23T23:18:07.679Z,80.27
2019-01-23T23:20:35.988Z,89.67
2019-01-23T23:25:36.047Z,88.10
2019-01-23T23:30:51.991Z,76.60
2019-01-23T23:33:20.440Z,84.50
2019-01-23T23:35:48.706Z,86.27
2019-01-23T23:38:17.018Z,76.07
2019-01-23T23:40:45.296Z,78.30
2019-01-23T23:43:13.577Z,89.47
2019-01-23T23:45:41.878Z,80.53
2019-01-23T23:48:10.152Z,78.23
2019-01-23T23:50:38.431Z,77.47
2019-01-23T23:53:08.383Z,70.70
2019-01-23T23:55:36.986Z,77.10
2019-01-23T23:58:05.395Z,73.40
